sensor_id;sensor_type;location;lat;lon;timestamp;P1;durP1;ratioP1;P2;durP2;ratioP2
1603;SDS011;795;49.296;11.348;2023-04-15T00:01:51;16.53;;;11.17;;
1603;SDS011;795;49.296;11.348;2023-04-15T00:04:18;15.33;;;12.20;;
1603;SDS011;795;49.296;11.348;2023-04-15T00:06:49;15.50;;;11.70;;
1603;SDS011;795;49.296;11.348;2023-04-15T00:09:18;13.37;;;11.00;;
1603;SDS011;795;49.296;11.348;2023-04-15T00:11:46;13.13;;;11.67;;
1603;SDS011;795;49.296;11.348;2023-04-15T00:14:13;13.17;;;10.83;;
1603;SDS011;795;49.296;11.348;2023-04-15T00:16:40;14.67;;;12.30;;
1603;SDS011;795;49.296;11.348;2023-04-15T00:19:07;14.57;;;12.40;;
1603;SDS011;795;49.296;11.348;2023-04-15T00:21:34;16.73;;;12.67;;
1603;SDS011;795;49.296;11.348;2023-04-15T00:24:01;14.50;;;12.90;;
1603;SDS011;795;49.296;11.348;2023-04-15T00:26:28;17.10;;;11.27;;
1603;SDS011;795;49.296;11.348;2023-04-15T00:28:55;15.17;;;12.93;;
1603;SDS011;795;49.296;11.348;2023-04-15T00:31:23;15.47;;;11.23;;
1603;SDS011;795;49.296;11.348;2023-04-15T00:33:50;13.07;;;11.30;;
1603;SDS011;795;49.296;11.348;2023-04-15T00:36:18;15.40;;;11.77;;
1603;SDS011;795;49.296;11.348;2023-04-15T00:38:45;14.93;;;10.57;;
1603;SDS011;795;49.296;11.348;2023-04-15T00:41:12;15.20;;;10.63;;
1603;SDS011;795;49.296;11.348;2023-04-15T00:43:39;15.07;;;10.50;;
1603;SDS011;795;49.296;11.348;2023-04-15T00:46:07;12.63;;;10.27;;
1603;SDS011;795;49.296;11.348;2023-04-15T00:48:38;21.70;;;10.90;;
1603;SDS011;795;49.296;11.348;2023-04-15T00:51:06;12.23;;;11.03;;
1603;SDS011;795;49.296;11.348;2023-04-15T00:53:34;10.90;;;9.80;;
1603;SDS011;795;49.296;11.348;2023-04-15T00:56:01;21.03;;;10.40;;
1603;SDS011;795;49.296;11.348;2023-04-15T00:58:28;12.43;;;10.80;;
1603;SDS011;795;49.296;11.348;2023-04-15T01:00:55;11.00;;;9.53;;
1603;SDS011;795;49.296;11.348;2023-04-15T01:03:24;13.00;;;10.03;;
1603;SDS011;795;49.296;11.348;2023-04-15T01:05:51;17.50;;;10.43;;
1603;SDS011;795;49.296;11.348;2023-04-15T01:08:27;11.10;;;9.80;;
1603;SDS011;795;49.296;11.348;2023-04-15T01:10:58;10.73;;;9.40;;
1603;SDS011;795;49.296;11.348;2023-04-15T01:13:28;10.27;;;9.17;;
1603;SDS011;795;49.296;11.348;2023-04-15T01:15:59;12.70;;;9.80;;
1603;SDS011;795;49.296;11.348;2023-04-15T01:18:28;10.97;;;9.67;;
1603;SDS011;795;49.296;11.348;2023-04-15T01:20:56;10.20;;;9.20;;
1603;SDS011;795;49.296;11.348;2023-04-15T01:23:27;9.37;;;8.40;;
1603;SDS011;795;49.296;11.348;2023-04-15T01:25:54;11.60;;;9.50;;
1603;SDS011;795;49.296;11.348;2023-04-15T01:28:23;14.10;;;10.10;;
1603;SDS011;795;49.296;11.348;2023-04-15T01:31:03;14.23;;;9.50;;
1603;SDS011;795;49.296;11.348;2023-04-15T01:33:39;10.83;;;9.00;;
1603;SDS011;795;49.296;11.348;2023-04-15T01:36:08;11.20;;;9.77;;
1603;SDS011;795;49.296;11.348;2023-04-15T01:38:37;10.50;;;8.30;;
1603;SDS011;795;49.296;11.348;2023-04-15T01:41:04;10.20;;;9.20;;
1603;SDS011;795;49.296;11.348;2023-04-15T01:43:33;9.50;;;8.10;;
1603;SDS011;795;49.296;11.348;2023-04-15T01:46:02;8.93;;;8.10;;
1603;SDS011;795;49.296;11.348;2023-04-15T01:48:29;9.53;;;8.53;;
1603;SDS011;795;49.296;11.348;2023-04-15T01:50:56;10.87;;;8.63;;
1603;SDS011;795;49.296;11.348;2023-04-15T01:53:25;10.37;;;8.80;;
1603;SDS011;795;49.296;11.348;2023-04-15T01:55:52;9.70;;;8.80;;
1603;SDS011;795;49.296;11.348;2023-04-15T01:58:19;12.00;;;8.90;;
1603;SDS011;795;49.296;11.348;2023-04-15T02:00:47;10.70;;;9.60;;
1603;SDS011;795;49.296;11.348;2023-04-15T02:03:14;12.87;;;10.00;;
1603;SDS011;795;49.296;11.348;2023-04-15T02:05:41;12.40;;;8.53;;
1603;SDS011;795;49.296;11.348;2023-04-15T02:08:08;11.10;;;9.30;;
1603;SDS011;795;49.296;11.348;2023-04-15T02:10:35;10.53;;;9.50;;
1603;SDS011;795;49.296;11.348;2023-04-15T02:13:02;10.93;;;8.90;;
1603;SDS011;795;49.296;11.348;2023-04-15T02:15:30;12.03;;;9.47;;
1603;SDS011;795;49.296;11.348;2023-04-15T02:17:56;11.77;;;10.07;;
1603;SDS011;795;49.296;11.348;2023-04-15T02:20:26;9.93;;;8.90;;
1603;SDS011;795;49.296;11.348;2023-04-15T02:22:52;11.30;;;10.13;;
1603;SDS011;795;49.296;11.348;2023-04-15T02:25:19;10.13;;;9.10;;
1603;SDS011;795;49.296;11.348;2023-04-15T02:27:46;14.77;;;10.07;;
1603;SDS011;795;49.296;11.348;2023-04-15T02:30:13;11.70;;;9.33;;
1603;SDS011;795;49.296;11.348;2023-04-15T02:32:40;11.53;;;10.30;;
1603;SDS011;795;49.296;11.348;2023-04-15T02:35:10;12.10;;;9.17;;
1603;SDS011;795;49.296;11.348;2023-04-15T02:37:37;11.83;;;10.53;;
1603;SDS011;795;49.296;11.348;2023-04-15T02:40:11;9.90;;;8.90;;
1603;SDS011;795;49.296;11.348;2023-04-15T02:42:39;11.90;;;9.00;;
1603;SDS011;795;49.296;11.348;2023-04-15T02:45:07;10.73;;;9.60;;
1603;SDS011;795;49.296;11.348;2023-04-15T02:47:37;10.67;;;9.67;;
1603;SDS011;795;49.296;11.348;2023-04-15T02:50:09;10.10;;;9.03;;
1603;SDS011;795;49.296;11.348;2023-04-15T02:52:39;12.00;;;9.70;;
1603;SDS011;795;49.296;11.348;2023-04-15T02:55:07;11.63;;;9.30;;
1603;SDS011;795;49.296;11.348;2023-04-15T02:57:35;11.23;;;10.13;;
1603;SDS011;795;49.296;11.348;2023-04-15T03:00:04;10.47;;;9.03;;
1603;SDS011;795;49.296;11.348;2023-04-15T03:02:35;9.80;;;8.83;;
1603;SDS011;795;49.296;11.348;2023-04-15T03:05:05;12.43;;;9.87;;
1603;SDS011;795;49.296;11.348;2023-04-15T03:07:36;10.87;;;9.70;;
1603;SDS011;795;49.296;11.348;2023-04-15T03:10:06;12.03;;;9.53;;
1603;SDS011;795;49.296;11.348;2023-04-15T03:12:33;11.63;;;10.17;;
1603;SDS011;795;49.296;11.348;2023-04-15T03:15:01;10.37;;;8.83;;
1603;SDS011;795;49.296;11.348;2023-04-15T03:17:28;9.87;;;8.83;;
1603;SDS011;795;49.296;11.348;2023-04-15T03:19:55;10.57;;;9.47;;
1603;SDS011;795;49.296;11.348;2023-04-15T03:22:22;10.80;;;9.73;;
1603;SDS011;795;49.296;11.348;2023-04-15T03:24:49;11.87;;;8.97;;
1603;SDS011;795;49.296;11.348;2023-04-15T03:27:16;11.03;;;9.70;;
1603;SDS011;795;49.296;11.348;2023-04-15T03:29:43;10.37;;;9.10;;
1603;SDS011;795;49.296;11.348;2023-04-15T03:32:10;12.40;;;9.60;;
1603;SDS011;795;49.296;11.348;2023-04-15T03:34:37;10.43;;;9.33;;
1603;SDS011;795;49.296;11.348;2023-04-15T03:37:04;14.23;;;9.77;;
1603;SDS011;795;49.296;11.348;2023-04-15T03:39:32;11.63;;;10.50;;
1603;SDS011;795;49.296;11.348;2023-04-15T03:41:59;13.60;;;10.37;;
1603;SDS011;795;49.296;11.348;2023-04-15T03:44:26;13.03;;;11.30;;
1603;SDS011;795;49.296;11.348;2023-04-15T03:46:53;12.90;;;11.60;;
1603;SDS011;795;49.296;11.348;2023-04-15T03:49:21;15.77;;;9.03;;
1603;SDS011;795;49.296;11.348;2023-04-15T03:51:48;11.37;;;10.17;;
1603;SDS011;795;49.296;11.348;2023-04-15T03:54:15;11.10;;;10.00;;
1603;SDS011;795;49.296;11.348;2023-04-15T03:56:42;11.57;;;9.50;;
1603;SDS011;795;49.296;11.348;2023-04-15T03:59:09;12.20;;;9.47;;
1603;SDS011;795;49.296;11.348;2023-04-15T04:01:36;10.30;;;9.30;;
1603;SDS011;795;49.296;11.348;2023-04-15T04:04:03;13.90;;;10.50;;
1603;SDS011;795;49.296;11.348;2023-04-15T04:06:30;18.63;;;10.07;;
1603;SDS011;795;49.296;11.348;2023-04-15T04:08:57;10.90;;;9.80;;
1603;SDS011;795;49.296;11.348;2023-04-15T04:11:24;9.27;;;8.40;;
1603;SDS011;795;49.296;11.348;2023-04-15T04:13:53;10.47;;;9.37;;
1603;SDS011;795;49.296;11.348;2023-04-15T04:16:20;11.00;;;8.53;;
1603;SDS011;795;49.296;11.348;2023-04-15T04:18:47;10.70;;;9.33;;
1603;SDS011;795;49.296;11.348;2023-04-15T04:21:14;14.70;;;9.00;;
1603;SDS011;795;49.296;11.348;2023-04-15T04:23:42;9.40;;;8.23;;
1603;SDS011;795;49.296;11.348;2023-04-15T04:26:09;10.37;;;9.30;;
1603;SDS011;795;49.296;11.348;2023-04-15T04:28:36;10.30;;;8.87;;
1603;SDS011;795;49.296;11.348;2023-04-15T04:31:07;9.37;;;8.47;;
1603;SDS011;795;49.296;11.348;2023-04-15T04:33:34;14.20;;;9.23;;
1603;SDS011;795;49.296;11.348;2023-04-15T04:36:01;9.17;;;7.90;;
1603;SDS011;795;49.296;11.348;2023-04-15T04:38:29;12.60;;;9.40;;
1603;SDS011;795;49.296;11.348;2023-04-15T04:40:56;10.77;;;9.53;;
1603;SDS011;795;49.296;11.348;2023-04-15T04:43:23;9.60;;;8.60;;
1603;SDS011;795;49.296;11.348;2023-04-15T04:45:50;15.87;;;10.03;;
1603;SDS011;795;49.296;11.348;2023-04-15T04:48:17;12.03;;;9.30;;
1603;SDS011;795;49.296;11.348;2023-04-15T04:50:44;12.13;;;9.47;;
1603;SDS011;795;49.296;11.348;2023-04-15T04:53:12;15.20;;;8.67;;
1603;SDS011;795;49.296;11.348;2023-04-15T04:55:40;12.50;;;8.83;;
1603;SDS011;795;49.296;11.348;2023-04-15T04:58:07;10.07;;;8.90;;
1603;SDS011;795;49.296;11.348;2023-04-15T05:00:34;10.80;;;8.33;;
1603;SDS011;795;49.296;11.348;2023-04-15T05:03:03;14.50;;;9.50;;
1603;SDS011;795;49.296;11.348;2023-04-15T05:05:30;10.90;;;9.17;;
1603;SDS011;795;49.296;11.348;2023-04-15T05:07:57;10.03;;;8.10;;
1603;SDS011;795;49.296;11.348;2023-04-15T05:10:24;11.47;;;8.40;;
1603;SDS011;795;49.296;11.348;2023-04-15T05:12:51;8.90;;;8.03;;
1603;SDS011;795;49.296;11.348;2023-04-15T05:15:18;10.13;;;8.30;;
1603;SDS011;795;49.296;11.348;2023-04-15T05:17:45;11.07;;;9.30;;
1603;SDS011;795;49.296;11.348;2023-04-15T05:20:12;17.30;;;9.57;;
1603;SDS011;795;49.296;11.348;2023-04-15T05:22:39;9.50;;;7.90;;
1603;SDS011;795;49.296;11.348;2023-04-15T05:25:06;11.67;;;8.37;;
1603;SDS011;795;49.296;11.348;2023-04-15T05:27:34;8.83;;;7.97;;
1603;SDS011;795;49.296;11.348;2023-04-15T05:30:02;10.27;;;9.20;;
1603;SDS011;795;49.296;11.348;2023-04-15T05:32:29;10.07;;;8.10;;
1603;SDS011;795;49.296;11.348;2023-04-15T05:34:56;9.90;;;8.50;;
1603;SDS011;795;49.296;11.348;2023-04-15T05:37:23;8.77;;;7.87;;
1603;SDS011;795;49.296;11.348;2023-04-15T05:39:50;10.33;;;9.27;;
1603;SDS011;795;49.296;11.348;2023-04-15T05:42:17;16.90;;;9.70;;
1603;SDS011;795;49.296;11.348;2023-04-15T05:44:44;9.80;;;8.50;;
1603;SDS011;795;49.296;11.348;2023-04-15T05:47:11;9.97;;;8.97;;
1603;SDS011;795;49.296;11.348;2023-04-15T05:49:38;8.83;;;8.00;;
1603;SDS011;795;49.296;11.348;2023-04-15T05:52:05;11.50;;;9.00;;
1603;SDS011;795;49.296;11.348;2023-04-15T05:54:32;10.63;;;9.17;;
1603;SDS011;795;49.296;11.348;2023-04-15T05:56:59;11.27;;;9.57;;
1603;SDS011;795;49.296;11.348;2023-04-15T05:59:26;12.93;;;9.90;;
1603;SDS011;795;49.296;11.348;2023-04-15T06:01:53;11.87;;;9.40;;
1603;SDS011;795;49.296;11.348;2023-04-15T06:04:20;14.23;;;9.00;;
1603;SDS011;795;49.296;11.348;2023-04-15T06:06:48;11.43;;;9.37;;
1603;SDS011;795;49.296;11.348;2023-04-15T06:09:15;10.53;;;9.43;;
1603;SDS011;795;49.296;11.348;2023-04-15T06:11:42;9.40;;;8.43;;
1603;SDS011;795;49.296;11.348;2023-04-15T06:14:09;9.50;;;8.20;;
1603;SDS011;795;49.296;11.348;2023-04-15T06:16:36;9.37;;;8.37;;
1603;SDS011;795;49.296;11.348;2023-04-15T06:19:03;10.37;;;9.30;;
1603;SDS011;795;49.296;11.348;2023-04-15T06:21:30;9.27;;;8.37;;
1603;SDS011;795;49.296;11.348;2023-04-15T06:23:58;10.43;;;9.43;;
1603;SDS011;795;49.296;11.348;2023-04-15T06:26:28;10.87;;;9.70;;
1603;SDS011;795;49.296;11.348;2023-04-15T06:28:56;10.07;;;9.07;;
1603;SDS011;795;49.296;11.348;2023-04-15T06:31:23;11.13;;;9.30;;
1603;SDS011;795;49.296;11.348;2023-04-15T06:33:50;12.83;;;9.73;;
1603;SDS011;795;49.296;11.348;2023-04-15T06:36:17;12.67;;;9.17;;
1603;SDS011;795;49.296;11.348;2023-04-15T06:38:44;11.70;;;9.37;;
1603;SDS011;795;49.296;11.348;2023-04-15T06:41:11;11.07;;;9.13;;
1603;SDS011;795;49.296;11.348;2023-04-15T06:43:38;9.37;;;8.30;;
1603;SDS011;795;49.296;11.348;2023-04-15T06:46:05;9.97;;;7.30;;
1603;SDS011;795;49.296;11.348;2023-04-15T06:48:32;9.83;;;8.50;;
1603;SDS011;795;49.296;11.348;2023-04-15T06:50:59;11.73;;;9.50;;
1603;SDS011;795;49.296;11.348;2023-04-15T06:53:26;14.70;;;10.00;;
1603;SDS011;795;49.296;11.348;2023-04-15T06:55:53;15.53;;;9.40;;
1603;SDS011;795;49.296;11.348;2023-04-15T06:58:21;9.30;;;8.40;;
1603;SDS011;795;49.296;11.348;2023-04-15T07:00:48;10.93;;;8.67;;
1603;SDS011;795;49.296;11.348;2023-04-15T07:03:15;11.10;;;9.70;;
1603;SDS011;795;49.296;11.348;2023-04-15T07:05:42;8.63;;;7.70;;
1603;SDS011;795;49.296;11.348;2023-04-15T07:08:09;12.07;;;10.20;;
1603;SDS011;795;49.296;11.348;2023-04-15T07:10:37;10.90;;;9.37;;
1603;SDS011;795;49.296;11.348;2023-04-15T07:13:04;12.53;;;9.70;;
1603;SDS011;795;49.296;11.348;2023-04-15T07:15:33;11.30;;;9.80;;
1603;SDS011;795;49.296;11.348;2023-04-15T07:18:00;10.30;;;9.20;;
1603;SDS011;795;49.296;11.348;2023-04-15T07:20:28;9.73;;;8.77;;
1603;SDS011;795;49.296;11.348;2023-04-15T07:22:55;10.83;;;9.73;;
1603;SDS011;795;49.296;11.348;2023-04-15T07:25:22;10.90;;;9.80;;
1603;SDS011;795;49.296;11.348;2023-04-15T07:27:49;13.53;;;9.27;;
1603;SDS011;795;49.296;11.348;2023-04-15T07:30:18;11.67;;;10.07;;
1603;SDS011;795;49.296;11.348;2023-04-15T07:32:45;12.03;;;8.97;;
1603;SDS011;795;49.296;11.348;2023-04-15T07:35:12;10.30;;;8.50;;
1603;SDS011;795;49.296;11.348;2023-04-15T07:37:39;12.57;;;9.00;;
1603;SDS011;795;49.296;11.348;2023-04-15T07:40:08;12.93;;;8.93;;
1603;SDS011;795;49.296;11.348;2023-04-15T07:42:36;11.00;;;9.90;;
1603;SDS011;795;49.296;11.348;2023-04-15T07:45:06;10.77;;;8.10;;
1603;SDS011;795;49.296;11.348;2023-04-15T07:47:34;12.30;;;9.80;;
1603;SDS011;795;49.296;11.348;2023-04-15T07:50:01;11.13;;;10.00;;
1603;SDS011;795;49.296;11.348;2023-04-15T07:52:28;11.13;;;9.93;;
1603;SDS011;795;49.296;11.348;2023-04-15T07:54:55;10.63;;;9.63;;
1603;SDS011;795;49.296;11.348;2023-04-15T07:57:22;12.93;;;10.10;;
1603;SDS011;795;49.296;11.348;2023-04-15T07:59:49;12.93;;;9.30;;
1603;SDS011;795;49.296;11.348;2023-04-15T08:03:34;9.43;;;8.03;;
1603;SDS011;795;49.296;11.348;2023-04-15T08:06:01;10.90;;;9.23;;
1603;SDS011;795;49.296;11.348;2023-04-15T08:08:28;11.60;;;8.10;;
1603;SDS011;795;49.296;11.348;2023-04-15T08:10:57;8.60;;;7.80;;
1603;SDS011;795;49.296;11.348;2023-04-15T08:13:24;11.83;;;9.00;;
1603;SDS011;795;49.296;11.348;2023-04-15T08:18:56;7.70;;;6.90;;
1603;SDS011;795;49.296;11.348;2023-04-15T08:21:23;9.40;;;7.40;;
1603;SDS011;795;49.296;11.348;2023-04-15T08:23:51;11.73;;;6.50;;
1603;SDS011;795;49.296;11.348;2023-04-15T08:26:19;7.63;;;6.83;;
1603;SDS011;795;49.296;11.348;2023-04-15T08:28:47;5.70;;;5.20;;
1603;SDS011;795;49.296;11.348;2023-04-15T08:31:15;8.60;;;6.10;;
1603;SDS011;795;49.296;11.348;2023-04-15T08:33:44;6.30;;;5.70;;
1603;SDS011;795;49.296;11.348;2023-04-15T08:36:12;5.23;;;4.83;;
1603;SDS011;795;49.296;11.348;2023-04-15T08:38:39;7.93;;;6.47;;
1603;SDS011;795;49.296;11.348;2023-04-15T08:41:07;7.43;;;6.70;;
1603;SDS011;795;49.296;11.348;2023-04-15T08:43:57;6.57;;;5.90;;
1603;SDS011;795;49.296;11.348;2023-04-15T08:46:31;13.20;;;5.67;;
1603;SDS011;795;49.296;11.348;2023-04-15T08:49:01;5.00;;;4.50;;
1603;SDS011;795;49.296;11.348;2023-04-15T08:51:31;5.40;;;4.90;;
1603;SDS011;795;49.296;11.348;2023-04-15T08:53:59;4.60;;;4.13;;
1603;SDS011;795;49.296;11.348;2023-04-15T08:56:28;4.60;;;3.97;;
1603;SDS011;795;49.296;11.348;2023-04-15T08:58:58;5.37;;;4.87;;
1603;SDS011;795;49.296;11.348;2023-04-15T09:01:27;4.20;;;3.90;;
1603;SDS011;795;49.296;11.348;2023-04-15T09:03:55;4.40;;;4.00;;
1603;SDS011;795;49.296;11.348;2023-04-15T09:06:24;3.50;;;3.20;;
1603;SDS011;795;49.296;11.348;2023-04-15T09:08:52;4.00;;;3.70;;
1603;SDS011;795;49.296;11.348;2023-04-15T09:11:20;3.50;;;3.20;;
1603;SDS011;795;49.296;11.348;2023-04-15T09:13:48;3.50;;;3.30;;
1603;SDS011;795;49.296;11.348;2023-04-15T09:16:15;3.50;;;3.30;;
1603;SDS011;795;49.296;11.348;2023-04-15T09:18:43;4.90;;;3.20;;
1603;SDS011;795;49.296;11.348;2023-04-15T09:21:10;2.83;;;2.63;;
1603;SDS011;795;49.296;11.348;2023-04-15T09:23:59;3.63;;;3.33;;
1603;SDS011;795;49.296;11.348;2023-04-15T09:26:35;3.13;;;2.87;;
1603;SDS011;795;49.296;11.348;2023-04-15T09:29:06;4.83;;;3.10;;
1603;SDS011;795;49.296;11.348;2023-04-15T09:31:38;3.83;;;3.10;;
1603;SDS011;795;49.296;11.348;2023-04-15T09:34:07;3.47;;;3.00;;
1603;SDS011;795;49.296;11.348;2023-04-15T09:36:45;3.20;;;2.83;;
1603;SDS011;795;49.296;11.348;2023-04-15T09:39:21;2.83;;;2.63;;
1603;SDS011;795;49.296;11.348;2023-04-15T09:42:07;3.00;;;2.80;;
1603;SDS011;795;49.296;11.348;2023-04-15T09:44:34;3.50;;;3.10;;
1603;SDS011;795;49.296;11.348;2023-04-15T09:47:02;2.90;;;2.40;;
1603;SDS011;795;49.296;11.348;2023-04-15T09:49:29;1.97;;;1.87;;
1603;SDS011;795;49.296;11.348;2023-04-15T09:51:57;2.73;;;2.53;;
1603;SDS011;795;49.296;11.348;2023-04-15T09:54:35;3.50;;;2.80;;
1603;SDS011;795;49.296;11.348;2023-04-15T09:57:04;3.80;;;2.73;;
1603;SDS011;795;49.296;11.348;2023-04-15T09:59:35;2.63;;;2.43;;
1603;SDS011;795;49.296;11.348;2023-04-15T10:02:03;2.30;;;2.10;;
1603;SDS011;795;49.296;11.348;2023-04-15T10:04:36;1.90;;;1.80;;
1603;SDS011;795;49.296;11.348;2023-04-15T10:07:10;1.93;;;1.73;;
1603;SDS011;795;49.296;11.348;2023-04-15T10:09:38;3.53;;;2.23;;
1603;SDS011;795;49.296;11.348;2023-04-15T10:12:06;7.43;;;2.20;;
1603;SDS011;795;49.296;11.348;2023-04-15T10:14:34;2.70;;;2.50;;
1603;SDS011;795;49.296;11.348;2023-04-15T10:17:05;2.17;;;1.97;;
1603;SDS011;795;49.296;11.348;2023-04-15T10:19:37;2.47;;;2.27;;
1603;SDS011;795;49.296;11.348;2023-04-15T10:22:05;2.13;;;2.03;;
1603;SDS011;795;49.296;11.348;2023-04-15T10:24:33;2.17;;;2.07;;
1603;SDS011;795;49.296;11.348;2023-04-15T10:27:01;2.73;;;2.50;;
1603;SDS011;795;49.296;11.348;2023-04-15T10:29:30;4.10;;;2.40;;
1603;SDS011;795;49.296;11.348;2023-04-15T10:31:58;2.40;;;2.20;;
1603;SDS011;795;49.296;11.348;2023-04-15T10:34:27;3.00;;;2.50;;
1603;SDS011;795;49.296;11.348;2023-04-15T10:37:08;2.53;;;2.33;;
1603;SDS011;795;49.296;11.348;2023-04-15T10:39:37;2.20;;;2.00;;
1603;SDS011;795;49.296;11.348;2023-04-15T10:42:11;3.20;;;2.90;;
1603;SDS011;795;49.296;11.348;2023-04-15T10:44:47;3.00;;;2.80;;
1603;SDS011;795;49.296;11.348;2023-04-15T10:47:18;2.90;;;2.70;;
1603;SDS011;795;49.296;11.348;2023-04-15T10:49:51;3.90;;;3.00;;
1603;SDS011;795;49.296;11.348;2023-04-15T10:52:25;3.17;;;2.87;;
1603;SDS011;795;49.296;11.348;2023-04-15T10:55:13;3.20;;;2.90;;
1603;SDS011;795;49.296;11.348;2023-04-15T10:57:51;3.37;;;3.10;;
1603;SDS011;795;49.296;11.348;2023-04-15T11:00:23;3.77;;;3.47;;
1603;SDS011;795;49.296;11.348;2023-04-15T11:02:55;4.90;;;3.73;;
1603;SDS011;795;49.296;11.348;2023-04-15T11:08:08;3.43;;;3.13;;
1603;SDS011;795;49.296;11.348;2023-04-15T11:20:56;3.47;;;3.17;;
1603;SDS011;795;49.296;11.348;2023-04-15T11:23:37;4.87;;;4.20;;
1603;SDS011;795;49.296;11.348;2023-04-15T11:26:12;3.47;;;3.17;;
1603;SDS011;795;49.296;11.348;2023-04-15T11:28:43;4.33;;;3.60;;
1603;SDS011;795;49.296;11.348;2023-04-15T11:31:12;3.37;;;3.10;;
1603;SDS011;795;49.296;11.348;2023-04-15T11:36:25;5.70;;;3.27;;
1603;SDS011;795;49.296;11.348;2023-04-15T11:38:57;3.63;;;3.30;;
1603;SDS011;795;49.296;11.348;2023-04-15T11:41:25;3.00;;;2.80;;
1603;SDS011;795;49.296;11.348;2023-04-15T11:43:52;3.13;;;2.93;;
1603;SDS011;795;49.296;11.348;2023-04-15T11:46:20;3.30;;;3.10;;
1603;SDS011;795;49.296;11.348;2023-04-15T11:48:56;3.30;;;3.10;;
1603;SDS011;795;49.296;11.348;2023-04-15T11:51:23;4.13;;;3.00;;
1603;SDS011;795;49.296;11.348;2023-04-15T11:53:50;3.77;;;3.47;;
1603;SDS011;795;49.296;11.348;2023-04-15T11:56:18;2.87;;;2.60;;
1603;SDS011;795;49.296;11.348;2023-04-15T11:58:54;3.80;;;3.20;;
1603;SDS011;795;49.296;11.348;2023-04-15T12:01:45;3.20;;;3.00;;
1603;SDS011;795;49.296;11.348;2023-04-15T12:04:13;3.03;;;2.77;;
1603;SDS011;795;49.296;11.348;2023-04-15T12:06:50;4.13;;;3.83;;
1603;SDS011;795;49.296;11.348;2023-04-15T12:09:17;3.90;;;3.60;;
1603;SDS011;795;49.296;11.348;2023-04-15T12:11:51;6.90;;;4.60;;
1603;SDS011;795;49.296;11.348;2023-04-15T12:19:29;4.00;;;3.60;;
1603;SDS011;795;49.296;11.348;2023-04-15T12:22:04;3.50;;;3.20;;
1603;SDS011;795;49.296;11.348;2023-04-15T12:24:36;3.10;;;2.90;;
1603;SDS011;795;49.296;11.348;2023-04-15T12:27:06;3.53;;;3.23;;
1603;SDS011;795;49.296;11.348;2023-04-15T12:29:38;3.10;;;2.90;;
1603;SDS011;795;49.296;11.348;2023-04-15T12:32:09;3.67;;;3.37;;
1603;SDS011;795;49.296;11.348;2023-04-15T12:34:48;4.13;;;3.43;;
1603;SDS011;795;49.296;11.348;2023-04-15T12:37:19;3.50;;;3.20;;
1603;SDS011;795;49.296;11.348;2023-04-15T12:39:48;3.60;;;3.30;;
1603;SDS011;795;49.296;11.348;2023-04-15T12:42:16;7.17;;;5.30;;
1603;SDS011;795;49.296;11.348;2023-04-15T12:44:45;3.73;;;3.43;;
1603;SDS011;795;49.296;11.348;2023-04-15T12:47:12;6.10;;;3.63;;
1603;SDS011;795;49.296;11.348;2023-04-15T12:49:39;3.30;;;3.03;;
1603;SDS011;795;49.296;11.348;2023-04-15T12:52:06;3.90;;;3.50;;
1603;SDS011;795;49.296;11.348;2023-04-15T12:54:34;4.90;;;4.50;;
1603;SDS011;795;49.296;11.348;2023-04-15T12:57:01;4.23;;;3.83;;
1603;SDS011;795;49.296;11.348;2023-04-15T12:59:32;5.77;;;5.17;;
1603;SDS011;795;49.296;11.348;2023-04-15T13:02:00;7.73;;;2.97;;
1603;SDS011;795;49.296;11.348;2023-04-15T13:04:28;2.70;;;2.50;;
1603;SDS011;795;49.296;11.348;2023-04-15T13:06:57;2.37;;;2.27;;
1603;SDS011;795;49.296;11.348;2023-04-15T13:09:24;2.77;;;2.57;;
1603;SDS011;795;49.296;11.348;2023-04-15T13:11:52;2.60;;;2.50;;
1603;SDS011;795;49.296;11.348;2023-04-15T13:14:19;3.27;;;2.50;;
1603;SDS011;795;49.296;11.348;2023-04-15T13:16:46;2.23;;;2.13;;
1603;SDS011;795;49.296;11.348;2023-04-15T13:19:14;2.97;;;2.77;;
1603;SDS011;795;49.296;11.348;2023-04-15T13:21:42;3.03;;;2.83;;
1603;SDS011;795;49.296;11.348;2023-04-15T13:24:15;2.80;;;2.60;;
1603;SDS011;795;49.296;11.348;2023-04-15T13:26:42;3.10;;;2.90;;
1603;SDS011;795;49.296;11.348;2023-04-15T13:29:09;3.30;;;3.03;;
1603;SDS011;795;49.296;11.348;2023-04-15T13:31:37;3.37;;;3.17;;
1603;SDS011;795;49.296;11.348;2023-04-15T13:34:04;3.80;;;3.50;;
1603;SDS011;795;49.296;11.348;2023-04-15T13:36:32;3.60;;;3.30;;
1603;SDS011;795;49.296;11.348;2023-04-15T13:38:59;3.60;;;3.40;;
1603;SDS011;795;49.296;11.348;2023-04-15T13:41:26;3.67;;;3.37;;
1603;SDS011;795;49.296;11.348;2023-04-15T13:43:54;4.63;;;4.20;;
1603;SDS011;795;49.296;11.348;2023-04-15T13:46:21;5.70;;;3.43;;
1603;SDS011;795;49.296;11.348;2023-04-15T13:48:48;3.07;;;2.87;;
1603;SDS011;795;49.296;11.348;2023-04-15T13:51:16;2.40;;;2.30;;
1603;SDS011;795;49.296;11.348;2023-04-15T13:53:43;3.23;;;2.93;;
1603;SDS011;795;49.296;11.348;2023-04-15T13:56:10;2.97;;;2.73;;
1603;SDS011;795;49.296;11.348;2023-04-15T13:58:37;2.87;;;2.67;;
1603;SDS011;795;49.296;11.348;2023-04-15T14:01:06;2.80;;;2.60;;
1603;SDS011;795;49.296;11.348;2023-04-15T14:03:33;3.10;;;2.90;;
1603;SDS011;795;49.296;11.348;2023-04-15T14:06:02;2.90;;;2.70;;
1603;SDS011;795;49.296;11.348;2023-04-15T14:08:31;2.97;;;2.77;;
1603;SDS011;795;49.296;11.348;2023-04-15T14:10:58;3.37;;;3.10;;
1603;SDS011;795;49.296;11.348;2023-04-15T14:13:25;2.97;;;2.67;;
1603;SDS011;795;49.296;11.348;2023-04-15T14:15:53;3.80;;;3.20;;
1603;SDS011;795;49.296;11.348;2023-04-15T14:18:20;2.67;;;2.47;;
1603;SDS011;795;49.296;11.348;2023-04-15T14:20:47;2.53;;;2.33;;
1603;SDS011;795;49.296;11.348;2023-04-15T14:23:14;3.57;;;3.37;;
1603;SDS011;795;49.296;11.348;2023-04-15T14:25:42;2.97;;;2.73;;
1603;SDS011;795;49.296;11.348;2023-04-15T14:28:12;3.50;;;3.20;;
1603;SDS011;795;49.296;11.348;2023-04-15T14:30:39;2.97;;;2.77;;
1603;SDS011;795;49.296;11.348;2023-04-15T14:33:06;5.63;;;5.00;;
1603;SDS011;795;49.296;11.348;2023-04-15T14:35:33;5.93;;;4.80;;
1603;SDS011;795;49.296;11.348;2023-04-15T14:38:01;7.73;;;6.97;;
1603;SDS011;795;49.296;11.348;2023-04-15T14:40:29;4.10;;;3.80;;
1603;SDS011;795;49.296;11.348;2023-04-15T14:42:56;3.20;;;3.00;;
1603;SDS011;795;49.296;11.348;2023-04-15T14:45:23;4.77;;;3.73;;
1603;SDS011;795;49.296;11.348;2023-04-15T14:47:50;3.00;;;2.80;;
1603;SDS011;795;49.296;11.348;2023-04-15T14:50:19;3.77;;;3.47;;
1603;SDS011;795;49.296;11.348;2023-04-15T14:52:47;2.93;;;2.73;;
1603;SDS011;795;49.296;11.348;2023-04-15T14:55:14;5.43;;;4.57;;
1603;SDS011;795;49.296;11.348;2023-04-15T14:57:41;5.80;;;4.00;;
1603;SDS011;795;49.296;11.348;2023-04-15T15:00:09;15.00;;;8.00;;
1603;SDS011;795;49.296;11.348;2023-04-15T15:02:41;3.50;;;3.20;;
1603;SDS011;795;49.296;11.348;2023-04-15T15:05:09;7.20;;;6.50;;
1603;SDS011;795;49.296;11.348;2023-04-15T15:07:37;3.67;;;3.37;;
1603;SDS011;795;49.296;11.348;2023-04-15T15:10:08;3.00;;;2.80;;
1603;SDS011;795;49.296;11.348;2023-04-15T15:12:35;2.87;;;2.67;;
1603;SDS011;795;49.296;11.348;2023-04-15T15:15:03;2.97;;;2.77;;
1603;SDS011;795;49.296;11.348;2023-04-15T15:17:44;3.07;;;2.77;;
1603;SDS011;795;49.296;11.348;2023-04-15T15:20:12;3.10;;;2.80;;
1603;SDS011;795;49.296;11.348;2023-04-15T15:22:39;3.20;;;3.00;;
1603;SDS011;795;49.296;11.348;2023-04-15T15:25:06;2.70;;;2.50;;
1603;SDS011;795;49.296;11.348;2023-04-15T15:27:34;3.50;;;3.20;;
1603;SDS011;795;49.296;11.348;2023-04-15T15:30:03;3.83;;;3.50;;
1603;SDS011;795;49.296;11.348;2023-04-15T15:32:32;4.07;;;3.60;;
1603;SDS011;795;49.296;11.348;2023-04-15T15:34:59;7.87;;;5.40;;
1603;SDS011;795;49.296;11.348;2023-04-15T15:37:28;3.60;;;3.30;;
1603;SDS011;795;49.296;11.348;2023-04-15T15:39:56;5.73;;;2.67;;
1603;SDS011;795;49.296;11.348;2023-04-15T15:42:24;3.00;;;2.80;;